KPVW

Hale County Airport

Plainview, Texas, USA
KPVW 161948Z 1620/1718 VRB05KT P6SM SCT080
Issued Valid From Valid To
Jul-16 @ 19:48 UTC
(14 minutes ago)
Jul-16 @ 20:00 UTC
(2 minutes ago)
Jul-17 @ 18:00 UTC
(in 22 hours)
Jul-16 @ 20:00 to Jul-17 @ 18:00
KPVW 161948Z 1620/1718 VRB05KT P6SM SCT080
Wind Visibility Clouds
Variable at 5 knots Greater than 6 miles
  • Scattered at 8,000' AGL
KPVW 161948Z 1620/1718 VRB05KT P6SM SCT080
Issued Jul-16 @ 19:48 UTC
(14 minutes ago)
Valid From Jul-16 @ 20:00 UTC
(2 minutes ago)
Valid To Jul-17 @ 18:00 UTC
(in 22 hours)
Jul-16 @ 20:00 - Jul-17 @ 18:00
Wind Visibility
Variable at 5 knots Greater than 6 miles
Clouds
  • Scattered at 8,000' AGL